Time;durP1;ratioP1;P1;durP2;ratioP2;P2;SDS_P1;SDS_P2;PMS_P1;PMS_P2;Temp;Humidity;BMP_temperature;BMP_pressure;BME280_temperature;BME280_humidity;BME280_pressure;Samples;Min_cycle;Max_cycle;Signal;HPM_P1;HPM_P2
2023/09/29 00:02:12;;;;;;;12.55;3.67;;;;;;;18.68;43.36;94358.22;5084230;28;20047;-79
2023/09/29 00:04:37;;;;;;;9.52;3.72;;;;;;;18.57;43.23;94333.78;5086641;28;20035;-80
2023/09/29 00:07:03;;;;;;;9.95;3.90;;;;;;;18.52;43.56;94342.13;5084388;28;20066;-80
2023/09/29 00:09:28;;;;;;;9.85;4.05;;;;;;;18.47;43.77;94337.00;5085532;28;20528;-80
2023/09/29 00:11:54;;;;;;;10.52;4.00;;;;;;;18.45;43.82;94339.25;5082059;28;20065;-81
2023/09/29 00:14:19;;;;;;;12.82;4.22;;;;;;;18.35;43.74;94326.31;5084392;28;20043;-79
2023/09/29 00:16:45;;;;;;;12.65;3.67;;;;;;;18.44;43.49;94348.44;5081619;28;20407;-79
2023/09/29 00:19:10;;;;;;;10.65;3.25;;;;;;;18.47;43.55;94347.78;5086116;28;20034;-80
2023/09/29 00:21:36;;;;;;;9.38;3.70;;;;;;;18.42;43.58;94348.81;5082117;28;20579;-80
2023/09/29 00:24:01;;;;;;;5.63;3.53;;;;;;;18.34;43.57;94332.81;5085721;28;20154;-80
2023/09/29 00:26:27;;;;;;;11.68;4.25;;;;;;;18.39;43.18;94343.31;5082591;28;20031;-80
2023/09/29 00:28:52;;;;;;;9.25;3.72;;;;;;;18.43;43.05;94344.22;5081341;28;20453;-80
2023/09/29 00:31:21;;;;;;;8.15;3.20;;;;;;;18.39;43.15;94340.63;5084218;28;20232;-80
2023/09/29 00:33:46;;;;;;;8.27;4.43;;;;;;;18.35;42.99;94334.38;5081665;28;20352;-81
2023/09/29 00:36:16;;;;;;;15.05;3.72;;;;;;;18.36;43.75;94338.66;5101450;27;20032;-79
2023/09/29 00:38:41;;;;;;;13.00;4.32;;;;;;;18.32;43.79;94348.56;5086614;28;20019;-80
2023/09/29 00:41:07;;;;;;;13.63;3.08;;;;;;;18.23;43.61;94340.66;5086185;28;20507;-80
2023/09/29 00:43:35;;;;;;;7.95;4.05;;;;;;;18.33;43.21;94345.50;5089749;28;20031;-81
2023/09/29 00:46:03;;;;;;;11.30;3.20;;;;;;;18.31;43.29;94341.59;5085840;28;20028;-81
2023/09/29 00:48:33;;;;;;;7.53;4.10;;;;;;;18.27;43.35;94341.53;5085958;28;20081;-81
2023/09/29 00:50:59;;;;;;;7.85;3.30;;;;;;;18.26;43.13;94333.78;5087636;28;20039;-80
2023/09/29 00:53:28;;;;;;;9.25;3.22;;;;;;;18.19;43.42;94329.00;5086643;28;20044;-80
2023/09/29 00:55:54;;;;;;;11.15;3.80;;;;;;;18.17;42.81;94325.91;5082155;28;20040;-81
2023/09/29 00:58:21;;;;;;;8.68;3.10;;;;;;;18.27;42.76;94338.06;5085985;28;20040;-80
2023/09/29 01:00:47;;;;;;;9.40;2.92;;;;;;;18.23;42.70;94329.13;5084028;28;20583;-80
2023/09/29 01:03:14;;;;;;;8.95;3.05;;;;;;;18.21;42.26;94331.38;5085603;28;20020;-81
2023/09/29 01:05:46;;;;;;;11.65;3.70;;;;;;;18.24;42.02;94330.66;5083133;28;20027;-80
2023/09/29 01:08:18;;;;;;;12.32;3.17;;;;;;;18.24;42.39;94338.72;5070695;28;20497;-80
2023/09/29 01:10:44;;;;;;;10.48;3.55;;;;;;;18.16;42.48;94329.72;5084951;28;20510;-80
2023/09/29 01:13:10;;;;;;;7.20;2.72;;;;;;;18.09;42.08;94328.78;5087779;28;20047;-80
2023/09/29 01:15:36;;;;;;;12.45;2.75;;;;;;;18.11;41.60;94321.13;5091155;28;20032;-80
2023/09/29 01:18:02;;;;;;;9.48;3.10;;;;;;;18.19;41.31;94322.84;5091482;28;20027;-80
2023/09/29 01:20:31;;;;;;;14.32;2.90;;;;;;;18.09;42.18;94312.63;5087394;28;20474;-80
2023/09/29 01:22:58;;;;;;;9.07;3.28;;;;;;;18.16;42.28;94334.31;5092097;28;20271;-79
2023/09/29 01:25:23;;;;;;;11.82;2.70;;;;;;;17.98;42.64;94315.84;5089685;28;20125;-79
2023/09/29 01:27:49;;;;;;;6.03;2.83;;;;;;;18.01;42.95;94333.97;5091444;27;20114;-80
2023/09/29 01:30:16;;;;;;;7.15;2.58;;;;;;;17.99;42.17;94336.22;5089889;28;20098;-80
2023/09/29 01:32:42;;;;;;;6.22;3.72;;;;;;;18.01;42.15;94333.19;5089084;28;20065;-80
2023/09/29 01:35:10;;;;;;;11.60;2.90;;;;;;;17.94;41.97;94331.09;5089606;28;20618;-79
2023/09/29 01:37:36;;;;;;;7.10;2.33;;;;;;;17.80;41.94;94309.19;5090546;28;20085;-80
2023/09/29 01:40:01;;;;;;;13.23;3.60;;;;;;;17.89;42.05;94330.56;5090587;27;20118;-80
2023/09/29 01:42:26;;;;;;;14.93;4.38;;;;;;;17.87;42.08;94330.13;5091595;28;20051;-80
2023/09/29 01:44:52;;;;;;;8.02;3.25;;;;;;;17.87;42.30;94335.50;5087429;28;20020;-81
2023/09/29 01:47:17;;;;;;;9.60;3.42;;;;;;;17.86;41.92;94326.66;5092542;28;20050;-80
2023/09/29 01:49:43;;;;;;;7.35;2.83;;;;;;;17.89;42.38;94347.47;5089314;28;20040;-81
2023/09/29 01:52:08;;;;;;;6.25;2.97;;;;;;;17.86;41.91;94334.72;5090904;27;20046;-81
2023/09/29 01:54:36;;;;;;;9.90;4.07;;;;;;;17.83;41.89;94340.81;5088925;28;20032;-80
2023/09/29 01:57:01;;;;;;;11.27;3.17;;;;;;;17.73;42.08;94319.00;5090196;28;20028;-80
2023/09/29 01:59:28;;;;;;;7.55;2.70;;;;;;;17.81;41.90;94334.97;5086144;28;20419;-80
2023/09/29 02:01:53;;;;;;;10.27;3.17;;;;;;;17.72;41.78;94326.28;5092671;28;20036;-80
2023/09/29 02:04:19;;;;;;;8.45;4.25;;;;;;;17.77;41.55;94334.09;5088363;28;20035;-80
2023/09/29 02:06:44;;;;;;;10.10;4.00;;;;;;;17.76;41.58;94340.59;5089553;28;20043;-80
2023/09/29 02:09:10;;;;;;;7.93;3.10;;;;;;;17.71;41.72;94335.47;5090956;27;20027;-80
2023/09/29 02:11:39;;;;;;;11.82;3.40;;;;;;;17.64;41.97;94324.53;5090124;28;20024;-80
2023/09/29 02:14:05;;;;;;;17.88;2.75;;;;;;;17.73;41.85;94340.53;5088920;28;20040;-80
2023/09/29 02:16:31;;;;;;;8.50;2.42;;;;;;;17.70;42.04;94327.78;5089900;27;20046;-80
2023/09/29 02:18:56;;;;;;;10.63;3.65;;;;;;;17.60;42.36;94312.88;5094396;27;20032;-80
2023/09/29 02:21:22;;;;;;;4.00;2.17;;;;;;;17.63;42.31;94322.97;5089086;28;20032;-80
2023/09/29 02:23:48;;;;;;;12.00;2.78;;;;;;;17.63;42.42;94317.59;5087259;28;20028;-81
2023/09/29 02:26:17;;;;;;;9.98;2.80;;;;;;;17.63;42.74;94322.97;5088025;28;20057;-80
2023/09/29 02:28:42;;;;;;;10.77;3.35;;;;;;;17.57;42.31;94313.59;5088389;27;20044;-80
2023/09/29 02:31:12;;;;;;;7.45;2.70;;;;;;;17.58;43.21;94328.59;5090297;28;20036;-80
2023/09/29 02:33:39;;;;;;;6.72;3.40;;;;;;;17.64;42.86;94335.31;5088948;28;20123;-81
2023/09/29 02:36:04;;;;;;;5.57;2.63;;;;;;;17.66;42.81;94332.25;5090934;28;22275;-81
2023/09/29 02:38:31;;;;;;;5.38;2.50;;;;;;;17.62;42.94;94337.53;5087572;28;20052;-81
2023/09/29 02:40:57;;;;;;;11.50;2.80;;;;;;;17.70;43.13;94343.91;5096973;28;20071;-80
2023/09/29 02:43:23;;;;;;;4.55;2.53;;;;;;;17.74;43.07;94342.09;5086981;28;20589;-80
2023/09/29 02:45:49;;;;;;;8.02;2.88;;;;;;;17.73;42.85;94351.28;5087674;28;20697;-80
2023/09/29 02:48:15;;;;;;;13.20;2.50;;;;;;;17.66;42.86;94330.34;5092353;28;20035;-80
2023/09/29 02:50:41;;;;;;;10.13;2.97;;;;;;;17.67;43.35;94347.28;5091518;28;20012;-80
2023/09/29 02:53:07;;;;;;;14.82;3.17;;;;;;;17.70;43.24;94344.66;5091784;28;20042;-80
2023/09/29 02:55:33;;;;;;;9.15;3.00;;;;;;;17.64;43.12;94327.25;5089365;28;20101;-80
2023/09/29 02:57:59;;;;;;;10.13;2.60;;;;;;;17.76;43.14;94348.66;5091243;28;20354;-80
2023/09/29 03:00:27;;;;;;;9.63;2.70;;;;;;;17.84;42.80;94361.19;5089765;28;20028;-80
2023/09/29 03:02:52;;;;;;;14.75;2.70;;;;;;;17.87;43.02;94365.09;5089811;28;20410;-80
2023/09/29 03:05:22;;;;;;;8.70;3.80;;;;;;;17.85;43.16;94357.38;5091334;28;20086;-79
2023/09/29 03:07:47;;;;;;;19.92;2.90;;;;;;;17.88;42.62;94356.69;5088344;28;20582;-80
2023/09/29 03:10:14;;;;;;;10.48;3.08;;;;;;;17.79;42.83;94350.69;5090999;28;20036;-80
2023/09/29 03:12:40;;;;;;;10.43;2.70;;;;;;;17.84;42.54;94345.06;5089892;28;20048;-80
2023/09/29 03:15:15;;;;;;;7.10;2.80;;;;;;;17.86;42.29;94352.75;5089524;28;20033;-80
2023/09/29 03:17:45;;;;;;;5.60;2.67;;;;;;;17.89;42.25;94355.53;5087034;28;20040;-80
2023/09/29 03:20:12;;;;;;;7.78;2.85;;;;;;;17.85;42.59;94354.66;5086822;28;20530;-80
2023/09/29 03:22:43;;;;;;;6.15;2.50;;;;;;;17.89;42.96;94352.84;5089555;28;20039;-80
2023/09/29 03:25:09;;;;;;;14.00;2.78;;;;;;;17.80;43.37;94344.16;5083964;28;21086;-81
2023/09/29 03:27:36;;;;;;;12.75;2.88;;;;;;;17.86;43.34;94358.94;5088500;28;20039;-79
2023/09/29 03:30:04;;;;;;;7.30;2.38;;;;;;;17.77;43.56;94346.78;5086645;28;20409;-81
2023/09/29 03:32:30;;;;;;;6.70;2.47;;;;;;;17.81;43.24;94350.31;5088118;28;20085;-81
2023/09/29 03:34:57;;;;;;;3.58;2.05;;;;;;;17.77;43.14;94344.88;5085006;27;20952;-80
2023/09/29 03:37:23;;;;;;;11.05;2.30;;;;;;;17.84;43.22;94358.50;5078547;28;20032;-80
2023/09/29 03:39:48;;;;;;;12.13;2.95;;;;;;;17.70;43.47;94335.84;5086788;28;20441;-81
2023/09/29 03:42:16;;;;;;;10.93;2.95;;;;;;;17.83;42.75;94350.78;5089559;28;20099;-81
2023/09/29 03:44:44;;;;;;;6.80;2.75;;;;;;;17.74;42.79;94348.25;5085597;28;20483;-80
2023/09/29 03:47:12;;;;;;;5.18;2.65;;;;;;;17.72;42.92;94341.63;5087569;28;20502;-81
2023/09/29 03:49:38;;;;;;;7.40;3.08;;;;;;;17.74;42.97;94345.56;5086067;28;20058;-80
2023/09/29 03:52:06;;;;;;;7.60;3.25;;;;;;;17.68;43.50;94349.63;5085746;28;20040;-81
2023/09/29 03:54:33;;;;;;;7.53;2.33;;;;;;;17.68;43.11;94356.91;5116625;27;20089;-80
2023/09/29 03:57:01;;;;;;;19.25;3.88;;;;;;;17.68;42.93;94346.94;5087047;28;20070;-80
2023/09/29 03:59:26;;;;;;;6.70;2.40;;;;;;;17.71;42.86;94351.63;5087257;28;20117;-80
2023/09/29 04:01:52;;;;;;;10.23;2.13;;;;;;;17.76;42.78;94361.34;5089071;28;20032;-80
2023/09/29 04:04:18;;;;;;;11.13;2.72;;;;;;;17.73;42.74;94353.97;5085233;28;20377;-80
2023/09/29 04:06:43;;;;;;;10.77;3.47;;;;;;;17.72;42.15;94357.78;5088049;28;20091;-80
2023/09/29 04:09:09;;;;;;;11.98;3.55;;;;;;;17.64;42.86;94350.66;5084745;27;20031;-79
2023/09/29 04:11:34;;;;;;;8.82;2.58;;;;;;;17.67;42.46;94352.66;5086501;28;20564;-81
2023/09/29 04:13:59;;;;;;;6.28;2.63;;;;;;;17.72;42.04;94358.56;5085789;28;20052;-80
2023/09/29 04:16:26;;;;;;;11.73;3.60;;;;;;;17.54;41.65;94331.22;5087226;28;20115;-78
2023/09/29 04:18:52;;;;;;;8.77;2.92;;;;;;;17.72;41.81;94353.19;5085518;28;20038;-81
2023/09/29 04:21:17;;;;;;;9.85;2.50;;;;;;;17.50;42.53;94340.31;5086034;28;20024;-80
2023/09/29 04:23:43;;;;;;;9.90;2.80;;;;;;;17.55;42.62;94348.13;5085595;28;20023;-80
2023/09/29 04:26:16;;;;;;;13.68;3.00;;;;;;;17.63;42.15;94360.63;5087704;28;20070;-81
2023/09/29 04:28:42;;;;;;;4.57;2.47;;;;;;;17.49;42.69;94349.50;5086559;28;20044;-81
2023/09/29 04:31:07;;;;;;;5.68;2.55;;;;;;;17.46;43.20;94350.16;5086681;28;20034;-81
2023/09/29 04:33:32;;;;;;;5.00;2.72;;;;;;;17.45;43.10;94343.25;5090956;28;20040;-81
2023/09/29 04:35:59;;;;;;;6.78;3.33;;;;;;;17.49;43.18;94355.66;5090030;28;20055;-80
2023/09/29 04:38:24;;;;;;;11.60;3.03;;;;;;;17.42;42.78;94343.91;5082383;28;20511;-80
2023/09/29 04:40:50;;;;;;;5.88;2.08;;;;;;;17.51;42.43;94355.28;5088626;28;20027;-80
2023/09/29 04:43:15;;;;;;;16.50;3.97;;;;;;;17.57;42.92;94370.84;5085678;28;20503;-80
2023/09/29 04:45:41;;;;;;;9.70;2.95;;;;;;;17.57;42.85;94368.16;5089934;28;20035;-80
2023/09/29 04:48:07;;;;;;;7.65;2.67;;;;;;;17.57;42.83;94359.31;5085493;28;20028;-80
2023/09/29 04:50:34;;;;;;;13.05;2.65;;;;;;;17.60;42.75;94358.63;5086096;28;20035;-80
2023/09/29 04:52:59;;;;;;;9.68;3.00;;;;;;;17.59;43.18;94373.22;5085709;28;20030;-80
2023/09/29 04:55:28;;;;;;;20.23;2.78;;;;;;;17.48;43.16;94362.16;5118444;27;20036;-80
2023/09/29 04:57:54;;;;;;;14.75;3.25;;;;;;;17.58;43.04;94374.34;5084502;28;20031;-80
2023/09/29 05:00:27;;;;;;;8.57;3.22;;;;;;;17.42;43.21;94344.69;5090086;28;20061;-80
2023/09/29 05:02:52;;;;;;;9.38;2.78;;;;;;;17.57;43.39;94372.75;5087538;28;20039;-80
2023/09/29 05:05:18;;;;;;;13.57;2.90;;;;;;;17.53;44.13;94382.66;5088732;28;20437;-80
2023/09/29 05:07:44;;;;;;;7.55;2.95;;;;;;;17.53;44.42;94382.66;5086253;28;20043;-81
2023/09/29 05:10:16;;;;;;;7.47;3.08;;;;;;;17.55;44.51;94380.41;5086057;28;20122;-80
2023/09/29 05:12:43;;;;;;;7.43;2.80;;;;;;;17.52;44.79;94389.94;5086090;28;20140;-80
2023/09/29 05:15:10;;;;;;;16.38;3.75;;;;;;;17.55;44.61;94396.53;5087423;28;20448;-80
2023/09/29 05:17:36;;;;;;;8.55;2.83;;;;;;;17.55;44.83;94386.53;5085685;28;20107;-80
2023/09/29 05:20:06;;;;;;;10.43;3.28;;;;;;;17.57;44.47;94388.91;5083448;28;20062;-81
2023/09/29 05:22:32;;;;;;;12.48;3.05;;;;;;;17.54;44.83;94384.22;5092460;28;20522;-81
2023/09/29 05:25:00;;;;;;;22.27;4.30;;;;;;;17.49;44.81;94371.00;5086869;28;20032;-80
2023/09/29 05:27:29;;;;;;;11.18;3.17;;;;;;;17.54;44.47;94381.53;5116402;27;20070;-80
2023/09/29 05:29:56;;;;;;;14.77;3.50;;;;;;;17.49;44.75;94373.69;5082860;28;20316;-80
2023/09/29 05:32:22;;;;;;;19.75;4.45;;;;;;;17.52;45.16;94387.22;5086121;28;20045;-80
2023/09/29 05:34:47;;;;;;;20.30;4.10;;;;;;;17.59;45.86;94392.81;5086062;28;20432;-80
2023/09/29 05:37:13;;;;;;;13.45;3.85;;;;;;;17.70;45.71;94397.72;5085014;28;20032;-80
2023/09/29 05:39:40;;;;;;;11.32;3.80;;;;;;;17.64;45.03;94372.97;5087124;28;20052;-80
2023/09/29 05:42:05;;;;;;;9.63;3.38;;;;;;;17.70;46.49;94392.34;5084656;28;20024;-80
2023/09/29 05:44:31;;;;;;;12.13;3.28;;;;;;;17.68;46.33;94389.97;5085471;28;20039;-80
2023/09/29 05:46:57;;;;;;;24.95;5.63;;;;;;;17.86;45.02;94401.19;5086577;28;20430;-80
2023/09/29 05:49:22;;;;;;;15.88;4.53;;;;;;;17.77;44.03;94385.22;5082022;28;20067;-81
2023/09/29 05:51:47;;;;;;;21.30;4.53;;;;;;;17.84;45.53;94403.47;5082879;28;20052;-81
2023/09/29 05:54:13;;;;;;;14.18;3.38;;;;;;;17.87;43.56;94398.16;5087037;28;20108;-81
2023/09/29 05:56:38;;;;;;;10.00;3.47;;;;;;;17.79;44.12;94380.28;5086829;28;20582;-80
2023/09/29 05:59:04;;;;;;;12.15;3.20;;;;;;;17.83;43.40;94381.16;5087659;28;20059;-80
2023/09/29 06:01:29;;;;;;;9.23;3.03;;;;;;;17.99;42.58;94395.44;5088197;28;20123;-79
2023/09/29 06:03:55;;;;;;;14.55;4.15;;;;;;;18.01;42.19;94398.56;5087001;28;20063;-80
2023/09/29 06:06:20;;;;;;;12.18;3.30;;;;;;;17.53;41.86;94318.09;5090116;28;20020;-81
2023/09/29 06:08:46;;;;;;;15.68;4.35;;;;;;;18.07;41.64;94391.03;5096143;28;20062;-80
2023/09/29 06:11:12;;;;;;;13.13;3.53;;;;;;;18.17;40.73;94403.19;5093163;28;20576;-80
2023/09/29 06:13:42;;;;;;;14.77;3.13;;;;;;;18.22;40.87;94401.03;5089168;28;20046;-81
2023/09/29 06:16:08;;;;;;;12.85;3.13;;;;;;;18.14;40.45;94390.44;5084239;28;20075;-80
2023/09/29 06:18:34;;;;;;;9.27;3.47;;;;;;;18.25;40.36;94405.72;5087018;28;20032;-80
2023/09/29 06:21:03;;;;;;;11.63;3.00;;;;;;;18.22;39.46;94390.25;5094179;28;20589;-80
2023/09/29 06:23:28;;;;;;;15.00;3.58;;;;;;;18.31;39.88;94407.00;5086356;28;20094;-80
2023/09/29 06:26:00;;;;;;;13.27;4.07;;;;;;;18.31;39.75;94395.47;5094816;28;20032;-80
2023/09/29 06:28:27;;;;;;;12.90;3.92;;;;;;;18.17;39.51;94378.97;5087707;28;20624;-80
2023/09/29 06:30:57;;;;;;;13.10;3.80;;;;;;;18.27;39.77;94390.00;5090058;28;20047;-80
2023/09/29 06:33:23;;;;;;;21.77;5.57;;;;;;;18.40;39.89;94402.22;5089428;28;20027;-79
2023/09/29 06:35:48;;;;;;;16.70;4.50;;;;;;;18.40;39.79;94396.84;5091030;28;20454;-81
2023/09/29 06:38:15;;;;;;;15.32;4.10;;;;;;;18.44;40.53;94407.69;5087876;28;20054;-81
2023/09/29 06:40:41;;;;;;;12.52;4.20;;;;;;;18.39;40.27;94397.19;5079256;28;20032;-81
2023/09/29 06:43:07;;;;;;;11.18;5.18;;;;;;;18.45;40.05;94390.41;5085248;28;20392;-80
2023/09/29 06:45:33;;;;;;;12.98;4.13;;;;;;;18.59;39.95;94398.03;5088255;28;20444;-80
2023/09/29 06:47:59;;;;;;;15.90;3.70;;;;;;;18.66;40.21;94400.91;5086103;28;20468;-80
2023/09/29 06:50:26;;;;;;;13.32;4.00;;;;;;;18.75;39.97;94404.25;5091329;28;20555;-80
2023/09/29 06:52:52;;;;;;;15.15;4.55;;;;;;;18.75;40.15;94399.63;5091829;28;20028;-81
2023/09/29 06:55:17;;;;;;;18.27;3.72;;;;;;;18.91;39.57;94407.69;5084855;28;20047;-79
2023/09/29 06:57:43;;;;;;;17.25;5.75;;;;;;;18.89;39.95;94391.09;5087172;28;20232;-80
2023/09/29 07:00:09;;;;;;;19.88;5.07;;;;;;;18.86;40.35;94376.41;5089284;28;20133;-80
2023/09/29 07:02:36;;;;;;;13.07;4.97;;;;;;;18.96;39.54;94372.38;5090740;28;20040;-81
2023/09/29 07:05:01;;;;;;;16.20;4.53;;;;;;;19.03;38.76;94377.13;5075376;28;20096;-80
2023/09/29 07:07:27;;;;;;;14.73;4.10;;;;;;;19.19;38.85;94396.75;5077737;28;20150;-80
2023/09/29 07:09:52;;;;;;;20.65;6.40;;;;;;;19.29;39.15;94396.97;5067924;28;20060;-80
2023/09/29 07:12:18;;;;;;;27.02;5.72;;;;;;;19.34;39.97;94398.59;5068696;28;20054;-80
2023/09/29 07:14:43;;;;;;;21.25;5.65;;;;;;;19.43;39.74;94406.47;5072775;28;20028;-81
2023/09/29 07:17:09;;;;;;;15.82;3.92;;;;;;;19.44;39.30;94398.03;5068925;28;20117;-80
2023/09/29 07:19:34;;;;;;;13.82;4.75;;;;;;;19.52;39.30;94399.75;5064126;28;20040;-80
2023/09/29 07:22:00;;;;;;;14.65;4.32;;;;;;;19.62;38.89;94403.81;5068970;28;20681;-81
2023/09/29 07:24:26;;;;;;;14.23;4.68;;;;;;;19.65;38.87;94406.56;5084591;28;20031;-79
2023/09/29 07:26:51;;;;;;;12.77;5.28;;;;;;;19.76;39.51;94409.47;5079279;28;20034;-80
2023/09/29 07:29:18;;;;;;;11.15;3.50;;;;;;;19.52;38.60;94394.38;5083512;28;21571;-80
2023/09/29 07:31:48;;;;;;;13.48;3.95;;;;;;;19.91;39.14;94410.53;5084005;28;20067;-80
2023/09/29 07:34:17;;;;;;;10.75;3.60;;;;;;;20.07;37.33;94413.94;5087798;28;20411;-80
2023/09/29 07:36:46;;;;;;;13.90;4.80;;;;;;;20.12;37.48;94421.72;5078400;28;20113;-80
2023/09/29 07:39:17;;;;;;;13.60;2.25;;;;;;;20.12;37.74;94395.50;5098429;27;20028;-81
2023/09/29 07:41:43;;;;;;;10.05;2.53;;;;;;;19.97;35.75;94398.31;5082665;28;20047;-80
2023/09/29 07:44:08;;;;;;;13.38;3.22;;;;;;;20.20;35.48;94417.25;5081876;28;20123;-81
2023/09/29 07:46:38;;;;;;;11.95;2.92;;;;;;;20.31;35.76;94424.41;5081947;28;20036;-80
2023/09/29 07:49:05;;;;;;;9.43;3.45;;;;;;;20.36;36.01;94418.72;5082400;28;20117;-81
2023/09/29 07:51:32;;;;;;;9.55;3.00;;;;;;;20.29;34.81;94415.88;5083294;28;20040;-80
2023/09/29 07:53:58;;;;;;;15.48;3.80;;;;;;;20.15;35.24;94404.81;5093123;27;20324;-80
2023/09/29 07:56:23;;;;;;;21.17;4.15;;;;;;;20.48;36.34;94418.53;5084333;27;20989;-80
2023/09/29 07:58:49;;;;;;;21.38;4.57;;;;;;;20.58;34.17;94417.91;5082727;27;20601;-80
2023/09/29 08:01:14;;;;;;;18.20;4.05;;;;;;;20.58;35.53;94417.91;5083498;28;20152;-80
2023/09/29 08:03:42;;;;;;;9.43;3.17;;;;;;;20.14;33.83;94422.16;5083486;28;20036;-81
2023/09/29 08:06:08;;;;;;;7.10;2.22;;;;;;;20.38;33.83;94421.84;5081054;28;20059;-81
2023/09/29 08:08:34;;;;;;;7.50;2.40;;;;;;;20.51;34.17;94401.59;5081708;28;20033;-80
2023/09/29 08:11:00;;;;;;;5.32;1.88;;;;;;;20.65;33.64;94401.03;5083974;27;20047;-80
2023/09/29 08:13:27;;;;;;;12.70;2.15;;;;;;;20.80;32.26;94407.44;5080821;28;20391;-80
2023/09/29 08:15:53;;;;;;;9.60;2.22;;;;;;;20.82;31.89;94405.16;5086795;28;20031;-80
2023/09/29 08:18:19;;;;;;;10.35;3.05;;;;;;;20.84;32.62;94416.38;5082679;27;20040;-81
2023/09/29 08:20:44;;;;;;;8.25;1.95;;;;;;;20.48;32.52;94418.53;5082331;28;20028;-80
2023/09/29 08:23:10;;;;;;;9.98;2.10;;;;;;;20.65;33.74;94390.22;5080782;27;20039;-80
2023/09/29 08:25:35;;;;;;;10.70;2.72;;;;;;;20.81;32.93;94396.28;5082705;27;20113;-80
2023/09/29 08:28:04;;;;;;;7.93;2.28;;;;;;;20.89;31.93;94416.88;5084123;28;20577;-80
2023/09/29 08:30:29;;;;;;;5.30;2.28;;;;;;;21.01;31.91;94416.69;5081878;27;20427;-80
2023/09/29 08:32:55;;;;;;;5.65;2.10;;;;;;;21.06;32.14;94412.91;5081834;28;20035;-80
2023/09/29 08:35:21;;;;;;;12.93;2.25;;;;;;;21.11;31.58;94406.41;5079081;28;20054;-80
2023/09/29 08:37:49;;;;;;;10.55;2.83;;;;;;;21.18;30.88;94418.06;5075225;27;20278;-80
2023/09/29 08:40:17;;;;;;;8.38;2.40;;;;;;;21.14;30.84;94398.31;5081346;27;20431;-80
2023/09/29 08:42:49;;;;;;;10.35;2.55;;;;;;;21.18;30.57;94401.84;5081268;28;20636;-80
2023/09/29 08:45:17;;;;;;;8.18;2.88;;;;;;;21.14;29.77;94411.84;5083084;28;20072;-81
2023/09/29 08:47:53;;;;;;;6.82;2.47;;;;;;;21.24;30.30;94410.44;5078367;28;20020;-81
2023/09/29 08:50:21;;;;;;;5.63;2.47;;;;;;;21.02;30.24;94401.25;5084486;28;20513;-81
2023/09/29 08:52:49;;;;;;;6.03;2.20;;;;;;;21.00;30.69;94401.63;5065605;28;20058;-81
2023/09/29 08:55:16;;;;;;;3.67;2.25;;;;;;;21.24;30.33;94405.81;5068349;28;20041;-80
2023/09/29 08:57:42;;;;;;;7.40;2.22;;;;;;;21.32;30.13;94406.66;5063047;28;20047;-80
2023/09/29 09:00:15;;;;;;;8.30;2.75;;;;;;;21.37;29.92;94395.53;5082362;28;20030;-80
2023/09/29 09:02:44;;;;;;;7.35;2.25;;;;;;;21.34;29.52;94399.75;5079089;28;20043;-80
2023/09/29 09:05:14;;;;;;;8.93;2.67;;;;;;;21.37;29.33;94409.03;5081383;28;20036;-80
2023/09/29 09:07:41;;;;;;;9.30;2.25;;;;;;;21.14;30.03;94400.25;5078433;28;20578;-80
2023/09/29 09:10:07;;;;;;;10.55;2.65;;;;;;;21.33;29.82;94398.19;5079571;28;20051;-80
2023/09/29 09:12:34;;;;;;;9.77;2.30;;;;;;;21.29;29.58;94397.38;5078832;28;20028;-80
2023/09/29 09:15:01;;;;;;;8.05;2.67;;;;;;;20.85;30.11;94389.00;5081311;28;20399;-81
2023/09/29 09:17:27;;;;;;;8.25;2.10;;;;;;;21.14;29.39;94401.03;5086926;28;20546;-81
2023/09/29 09:19:53;;;;;;;11.40;2.42;;;;;;;21.29;29.59;94391.97;5081077;28;20036;-80
2023/09/29 09:22:26;;;;;;;7.18;2.55;;;;;;;21.34;29.84;94410.56;5079340;28;20088;-80
2023/09/29 09:25:02;;;;;;;5.82;2.35;;;;;;;21.39;30.23;94396.72;5079693;28;20433;-81
2023/09/29 09:27:38;;;;;;;8.18;2.55;;;;;;;21.59;31.91;94407.44;5080264;28;20589;-80
2023/09/29 09:30:05;;;;;;;5.40;2.25;;;;;;;21.59;30.58;94399.31;5079971;28;20475;-81
2023/09/29 09:32:31;;;;;;;7.97;2.78;;;;;;;21.57;31.57;94396.19;5079455;28;20578;-80
2023/09/29 09:34:57;;;;;;;6.60;2.50;;;;;;;21.63;29.95;94405.53;5079799;28;20042;-80
2023/09/29 09:37:29;;;;;;;4.38;2.65;;;;;;;21.63;30.38;94397.44;5083006;28;20080;-80
2023/09/29 09:39:56;;;;;;;7.57;2.75;;;;;;;21.68;29.67;94402.50;5081237;28;20036;-80
2023/09/29 09:42:27;;;;;;;4.25;2.38;;;;;;;21.71;29.65;94402.53;5081769;27;20024;-80
2023/09/29 09:44:59;;;;;;;8.07;2.47;;;;;;;21.80;30.45;94396.88;5085702;28;20067;-80
2023/09/29 09:47:26;;;;;;;6.20;2.75;;;;;;;21.84;29.91;94403.88;5083449;28;20581;-80
2023/09/29 09:49:56;;;;;;;15.38;3.20;;;;;;;21.81;31.06;94401.88;5082839;28;20039;-80
2023/09/29 09:52:30;;;;;;;13.38;3.47;;;;;;;21.54;29.75;94394.97;5082344;28;20472;-80
2023/09/29 09:55:08;;;;;;;8.02;3.05;;;;;;;21.68;29.40;94392.47;5082068;28;20416;-81
2023/09/29 09:57:38;;;;;;;6.68;3.47;;;;;;;21.76;29.07;94399.50;5081995;28;20517;-80
2023/09/29 10:00:15;;;;;;;12.82;3.42;;;;;;;21.79;29.43;94398.00;5085977;28;20024;-82
2023/09/29 10:02:51;;;;;;;5.03;3.03;;;;;;;21.92;30.42;94396.59;5081584;28;20231;-80
2023/09/29 10:05:30;;;;;;;7.47;3.50;;;;;;;21.93;29.54;94392.75;5082017;28;20169;-80
2023/09/29 10:08:01;;;;;;;8.65;3.08;;;;;;;21.91;28.88;94397.75;5082765;28;20508;-81
2023/09/29 10:10:31;;;;;;;13.85;3.83;;;;;;;21.42;29.15;94378.97;5083913;28;20406;-80
2023/09/29 10:13:00;;;;;;;10.10;3.40;;;;;;;21.52;29.32;94388.34;5076617;28;20092;-80
2023/09/29 10:15:32;;;;;;;11.05;3.03;;;;;;;21.61;29.45;94376.13;5080736;28;20045;-79
2023/09/29 10:18:12;;;;;;;8.15;2.78;;;;;;;21.88;30.02;94384.94;5083515;28;20027;-80
2023/09/29 10:20:37;;;;;;;8.55;2.90;;;;;;;21.97;29.72;94377.31;5084234;28;20135;-81
2023/09/29 10:23:06;;;;;;;11.65;3.30;;;;;;;22.05;30.42;94378.91;5083672;28;20704;-80
2023/09/29 10:25:34;;;;;;;10.75;2.95;;;;;;;22.10;30.01;94375.88;5081943;28;20129;-80
2023/09/29 10:28:01;;;;;;;8.93;2.75;;;;;;;22.05;29.27;94370.81;5080465;28;20092;-81
2023/09/29 10:30:27;;;;;;;6.93;3.42;;;;;;;22.03;30.09;94354.16;5099795;27;20032;-79
2023/09/29 10:33:11;;;;;;;9.52;3.00;;;;;;;21.99;29.92;94353.34;5086569;28;20579;-80
2023/09/29 10:35:44;;;;;;;9.43;2.70;;;;;;;22.16;30.52;94360.84;5083556;27;20039;-81
2023/09/29 10:38:23;;;;;;;10.37;2.83;;;;;;;22.15;30.31;94356.56;5098724;27;20034;-80
2023/09/29 10:40:49;;;;;;;10.88;2.88;;;;;;;22.20;29.96;94358.94;5083718;28;20036;-81
2023/09/29 10:43:24;;;;;;;17.08;4.05;;;;;;;22.13;30.23;94342.66;5082201;28;20036;-80
2023/09/29 10:45:50;;;;;;;10.23;2.78;;;;;;;22.19;30.25;94357.38;5081021;28;20047;-81
2023/09/29 10:48:23;;;;;;;10.60;3.00;;;;;;;22.10;29.49;94326.34;5086111;28;20074;-81
2023/09/29 10:50:50;;;;;;;10.27;2.95;;;;;;;22.29;29.76;94350.56;5087251;28;20193;-80
2023/09/29 10:53:18;;;;;;;7.63;2.97;;;;;;;22.34;29.98;94354.84;5078241;28;20046;-80
2023/09/29 10:55:47;;;;;;;9.52;3.83;;;;;;;22.27;29.64;94348.22;5087739;28;20036;-81
2023/09/29 10:58:15;;;;;;;11.77;3.03;;;;;;;22.25;30.19;94338.88;5089180;28;20039;-81
2023/09/29 11:00:49;;;;;;;10.13;3.05;;;;;;;22.27;28.99;94340.09;5088104;28;20555;-80
2023/09/29 11:03:16;;;;;;;17.70;3.45;;;;;;;21.99;28.90;94328.97;5085650;28;20047;-80
2023/09/29 11:05:52;;;;;;;8.95;3.03;;;;;;;22.18;29.68;94347.72;5087136;28;20605;-81
2023/09/29 11:08:20;;;;;;;7.25;3.55;;;;;;;22.08;28.33;94344.91;5089159;28;20055;-81
2023/09/29 11:10:55;;;;;;;13.65;3.70;;;;;;;21.63;28.71;94346.00;5088079;28;20348;-80
2023/09/29 11:13:21;;;;;;;8.77;3.78;;;;;;;21.88;28.09;94331.56;5090184;28;20028;-80
2023/09/29 11:15:46;;;;;;;9.13;3.88;;;;;;;22.02;28.10;94330.94;5087205;28;20906;-80
2023/09/29 11:18:12;;;;;;;8.32;3.30;;;;;;;22.07;28.61;94317.03;5090001;28;20034;-80
2023/09/29 11:20:37;;;;;;;8.90;3.80;;;;;;;21.81;29.23;94334.19;5088430;28;20509;-80
2023/09/29 11:23:08;;;;;;;11.00;3.80;;;;;;;21.87;29.12;94318.41;5089536;28;20031;-80
2023/09/29 11:25:51;;;;;;;7.43;3.65;;;;;;;21.76;29.32;94329.13;5089397;28;20508;-81
2023/09/29 11:28:17;;;;;;;11.27;3.78;;;;;;;20.95;28.99;94317.31;5086932;28;20048;-80
2023/09/29 11:30:43;;;;;;;14.05;4.22;;;;;;;21.46;28.41;94293.97;5088751;28;20040;-81